• Join FlightAware (Why Join?)
  • Login
  • US Flag 
01:24PM EDT


 

Airport Tracker/Info


-or-


 

Live Flight TrackerFlight Track Log ✈ UAL3589 ✈ 07-May-2013 ✈ KEWR - KMDT

Flight Track Log - Related Links

Times and Time Zones

All times are in EDT time to prevent confusion due to time zone crossing. See the UAL3589 flight status page for this flight to view local times or setup timezone preferences in your user account.

Time Position Orientation Groundspeed Altitude Reporting Facility
EDT Latitude Longitude Course Direction KTS MPH feet Rate Location/Type
09:48PM 40.6833 -74.1833 201° Southwest 135 155 700  Level New York TRACON
09:49PM 40.6500 -74.2000 201° Southwest 169 194 2,000 1,380 Climbing New York TRACON
09:50PM 40.6000 -74.2500 217° Southwest 195 224 3,700 1,380 Climbing New York TRACON
09:51PM 40.5833 -74.3167 252° West 218 251 4,800 1,260 Climbing New York TRACON
09:52PM 40.5833 -74.4000 270° West 226 260 6,200 1,380 Climbing New York TRACON
09:53PM 40.5833 -74.4833 270° West 224 258 7,600 900 Climbing New York TRACON
09:54PM 40.5833 -74.5667 270° West 246 283 8,100 180 Climbing New York TRACON
09:55PM 40.5667 -74.6667 258° West 273 314 8,000 -120 Descending New York TRACON
09:57PM 40.5636 -74.7854 266° West  Level FlightAware Approximate
10:04PM 40.5545 -75.4011 273° West  Level FlightAware Approximate
10:05PM 40.5584 -75.4896 273° West  Level FlightAware Approximate
10:06PM 40.5622 -75.5781 273° West  Level FlightAware Approximate
10:07PM 40.5660 -75.6666 273° West  Level FlightAware Approximate
10:08PM 40.5480 -75.7509 250° West  Level FlightAware Approximate
10:09PM 40.5249 -75.8341 250° West  Level FlightAware Approximate
10:10PM 40.5018 -75.9173 250° West  Level FlightAware Approximate
10:11PM 40.4808 -76.0012 259° West  Level FlightAware Approximate
10:12PM 40.4683 -76.0882 259° West  Level FlightAware Approximate
10:13PM 40.4481 -76.1725 246° West  Level FlightAware Approximate
10:14PM 40.4211 -76.2536 246° West  Level FlightAware Approximate
10:15PM 40.3951 -76.3351 251° West  Level FlightAware Approximate
10:16PM 40.3728 -76.4185 251° West  Level FlightAware Approximate
10:17PM 40.3504 -76.5019 251° West  Level FlightAware Approximate
10:18PM 40.3279 -76.5852 251° West  Level FlightAware Approximate
10:19PM 40.3055 -76.6684 251° West  Level FlightAware Approximate
10:20PM 40.2833 -76.7517 270° West  Level FlightAware Approximate
10:21PM 40.2833 -76.8400 270° West  Level FlightAware Approximate
10:22PM 40.2833 -76.9283 270° West  Level FlightAware Approximate
10:23PM 40.2950 -77.0151 281° West  Level FlightAware Approximate
10:24PM 40.2849 -77.0364 123° Southeast  Level FlightAware Approximate
10:25PM 40.2534 -76.9585 118° Southeast  Level FlightAware Approximate
10:26PM 40.2333 -76.8778 90° East  Level FlightAware Approximate
10:27PM 40.2035 -76.8004 118° Southeast  Level FlightAware Approximate
10:28PM 40.1932 -76.7626 118° Southeast  Level Estimated